sensor_id;sensor_type;location;lat;lon;timestamp;temperature;humidity
2997;DHT22;1508;48.744;9.110;2023-05-24T00:01:08;11.60;99.90
2997;DHT22;1508;48.744;9.110;2023-05-24T00:03:54;11.60;99.90
2997;DHT22;1508;48.744;9.110;2023-05-24T00:06:40;11.60;99.90
2997;DHT22;1508;48.744;9.110;2023-05-24T00:09:25;11.60;99.90
2997;DHT22;1508;48.744;9.110;2023-05-24T00:12:11;11.50;99.90
2997;DHT22;1508;48.744;9.110;2023-05-24T00:14:57;11.50;99.90
2997;DHT22;1508;48.744;9.110;2023-05-24T00:17:43;11.50;99.90
2997;DHT22;1508;48.744;9.110;2023-05-24T00:20:29;11.50;99.90
2997;DHT22;1508;48.744;9.110;2023-05-24T00:23:15;11.60;99.90
2997;DHT22;1508;48.744;9.110;2023-05-24T00:26:00;11.50;99.90
2997;DHT22;1508;48.744;9.110;2023-05-24T00:28:46;11.50;99.90
2997;DHT22;1508;48.744;9.110;2023-05-24T00:31:32;11.50;99.90
2997;DHT22;1508;48.744;9.110;2023-05-24T00:34:18;11.40;99.90
2997;DHT22;1508;48.744;9.110;2023-05-24T00:37:04;11.40;99.90
2997;DHT22;1508;48.744;9.110;2023-05-24T00:39:49;11.30;99.90
2997;DHT22;1508;48.744;9.110;2023-05-24T00:42:35;11.30;99.90
2997;DHT22;1508;48.744;9.110;2023-05-24T00:45:21;11.30;99.90
2997;DHT22;1508;48.744;9.110;2023-05-24T00:48:07;11.30;99.90
2997;DHT22;1508;48.744;9.110;2023-05-24T00:50:52;11.30;99.90
2997;DHT22;1508;48.744;9.110;2023-05-24T00:53:39;11.20;99.90
2997;DHT22;1508;48.744;9.110;2023-05-24T00:56:25;11.20;99.90
2997;DHT22;1508;48.744;9.110;2023-05-24T00:59:12;11.30;99.90
2997;DHT22;1508;48.744;9.110;2023-05-24T01:01:58;11.30;99.90
2997;DHT22;1508;48.744;9.110;2023-05-24T01:04:43;11.30;99.90
2997;DHT22;1508;48.744;9.110;2023-05-24T01:07:32;11.20;99.90
2997;DHT22;1508;48.744;9.110;2023-05-24T01:10:24;11.20;99.90
2997;DHT22;1508;48.744;9.110;2023-05-24T01:13:18;11.20;99.90
2997;DHT22;1508;48.744;9.110;2023-05-24T01:16:08;11.20;99.90
2997;DHT22;1508;48.744;9.110;2023-05-24T01:19:04;11.10;99.90
2997;DHT22;1508;48.744;9.110;2023-05-24T01:21:53;11.10;99.90
2997;DHT22;1508;48.744;9.110;2023-05-24T01:27:35;11.00;99.90
2997;DHT22;1508;48.744;9.110;2023-05-24T01:30:21;11.00;99.90
2997;DHT22;1508;48.744;9.110;2023-05-24T01:33:07;11.00;99.90
2997;DHT22;1508;48.744;9.110;2023-05-24T01:35:53;11.00;99.90
2997;DHT22;1508;48.744;9.110;2023-05-24T01:38:39;11.00;99.90
2997;DHT22;1508;48.744;9.110;2023-05-24T01:41:28;11.00;99.90
2997;DHT22;1508;48.744;9.110;2023-05-24T01:44:28;10.90;99.90
2997;DHT22;1508;48.744;9.110;2023-05-24T01:50:13;11.20;99.90
2997;DHT22;1508;48.744;9.110;2023-05-24T01:53:08;11.00;99.90
2997;DHT22;1508;48.744;9.110;2023-05-24T01:55:57;11.00;99.90
2997;DHT22;1508;48.744;9.110;2023-05-24T01:58:44;10.90;99.90
2997;DHT22;1508;48.744;9.110;2023-05-24T02:01:31;10.90;99.90
2997;DHT22;1508;48.744;9.110;2023-05-24T02:04:17;10.80;99.90
2997;DHT22;1508;48.744;9.110;2023-05-24T02:07:03;10.90;99.90
2997;DHT22;1508;48.744;9.110;2023-05-24T02:09:48;10.90;99.90
2997;DHT22;1508;48.744;9.110;2023-05-24T02:12:34;10.90;99.90
2997;DHT22;1508;48.744;9.110;2023-05-24T02:15:20;10.90;99.90
2997;DHT22;1508;48.744;9.110;2023-05-24T02:18:06;11.00;99.90
2997;DHT22;1508;48.744;9.110;2023-05-24T02:20:51;11.00;99.90
2997;DHT22;1508;48.744;9.110;2023-05-24T02:23:37;11.00;99.90
2997;DHT22;1508;48.744;9.110;2023-05-24T02:26:23;10.90;99.90
2997;DHT22;1508;48.744;9.110;2023-05-24T02:29:09;10.90;99.90
2997;DHT22;1508;48.744;9.110;2023-05-24T02:31:54;10.80;99.90
2997;DHT22;1508;48.744;9.110;2023-05-24T02:34:40;10.80;99.90
2997;DHT22;1508;48.744;9.110;2023-05-24T02:37:26;10.80;99.90
2997;DHT22;1508;48.744;9.110;2023-05-24T02:40:12;10.80;99.90
2997;DHT22;1508;48.744;9.110;2023-05-24T02:42:58;10.80;99.90
2997;DHT22;1508;48.744;9.110;2023-05-24T02:45:43;10.70;99.90
2997;DHT22;1508;48.744;9.110;2023-05-24T02:48:29;10.70;99.90
2997;DHT22;1508;48.744;9.110;2023-05-24T02:51:15;10.60;99.90
2997;DHT22;1508;48.744;9.110;2023-05-24T02:54:01;10.60;99.90
2997;DHT22;1508;48.744;9.110;2023-05-24T02:56:47;10.50;99.90
2997;DHT22;1508;48.744;9.110;2023-05-24T02:59:33;10.50;99.90
2997;DHT22;1508;48.744;9.110;2023-05-24T03:02:19;10.50;99.90
2997;DHT22;1508;48.744;9.110;2023-05-24T03:05:04;10.40;99.90
2997;DHT22;1508;48.744;9.110;2023-05-24T03:07:50;10.40;99.90
2997;DHT22;1508;48.744;9.110;2023-05-24T03:10:36;10.30;99.90
2997;DHT22;1508;48.744;9.110;2023-05-24T03:13:22;10.30;99.90
2997;DHT22;1508;48.744;9.110;2023-05-24T03:16:07;10.30;99.90
2997;DHT22;1508;48.744;9.110;2023-05-24T03:18:53;10.20;99.90
2997;DHT22;1508;48.744;9.110;2023-05-24T03:21:39;10.20;99.90
2997;DHT22;1508;48.744;9.110;2023-05-24T03:24:24;10.20;99.90
2997;DHT22;1508;48.744;9.110;2023-05-24T03:27:10;10.10;99.90
2997;DHT22;1508;48.744;9.110;2023-05-24T03:29:56;10.10;99.90
2997;DHT22;1508;48.744;9.110;2023-05-24T03:32:42;10.10;99.90
2997;DHT22;1508;48.744;9.110;2023-05-24T03:35:27;10.10;99.90
2997;DHT22;1508;48.744;9.110;2023-05-24T03:38:13;10.10;99.90
2997;DHT22;1508;48.744;9.110;2023-05-24T03:40:59;10.10;99.90
2997;DHT22;1508;48.744;9.110;2023-05-24T03:43:45;10.10;99.90
2997;DHT22;1508;48.744;9.110;2023-05-24T03:46:30;10.00;99.90
2997;DHT22;1508;48.744;9.110;2023-05-24T03:49:16;10.10;99.90
2997;DHT22;1508;48.744;9.110;2023-05-24T03:52:02;10.10;99.90
2997;DHT22;1508;48.744;9.110;2023-05-24T03:54:48;10.00;99.90
2997;DHT22;1508;48.744;9.110;2023-05-24T03:57:33;10.00;99.90
2997;DHT22;1508;48.744;9.110;2023-05-24T04:00:19;9.90;99.90
2997;DHT22;1508;48.744;9.110;2023-05-24T04:03:05;9.90;99.90
2997;DHT22;1508;48.744;9.110;2023-05-24T04:05:51;10.00;99.90
2997;DHT22;1508;48.744;9.110;2023-05-24T04:08:37;10.00;99.90
2997;DHT22;1508;48.744;9.110;2023-05-24T04:11:23;9.90;99.90
2997;DHT22;1508;48.744;9.110;2023-05-24T04:14:09;10.00;99.90
2997;DHT22;1508;48.744;9.110;2023-05-24T04:16:54;9.90;99.90
2997;DHT22;1508;48.744;9.110;2023-05-24T04:19:40;9.90;99.90
2997;DHT22;1508;48.744;9.110;2023-05-24T04:22:26;9.90;99.90
2997;DHT22;1508;48.744;9.110;2023-05-24T04:25:12;10.00;99.90
2997;DHT22;1508;48.744;9.110;2023-05-24T04:27:57;10.10;99.90
2997;DHT22;1508;48.744;9.110;2023-05-24T04:30:43;10.00;99.90
2997;DHT22;1508;48.744;9.110;2023-05-24T04:33:29;9.90;99.90
2997;DHT22;1508;48.744;9.110;2023-05-24T04:36:15;9.90;99.90
2997;DHT22;1508;48.744;9.110;2023-05-24T04:39:01;9.90;99.90
2997;DHT22;1508;48.744;9.110;2023-05-24T04:41:46;10.00;99.90
2997;DHT22;1508;48.744;9.110;2023-05-24T04:44:32;10.00;99.90
2997;DHT22;1508;48.744;9.110;2023-05-24T04:47:18;10.00;99.90
2997;DHT22;1508;48.744;9.110;2023-05-24T04:50:04;10.00;99.90
2997;DHT22;1508;48.744;9.110;2023-05-24T04:52:50;9.90;99.90
2997;DHT22;1508;48.744;9.110;2023-05-24T04:55:35;9.90;99.90
2997;DHT22;1508;48.744;9.110;2023-05-24T04:58:21;10.00;99.90
2997;DHT22;1508;48.744;9.110;2023-05-24T05:01:07;10.10;99.90
2997;DHT22;1508;48.744;9.110;2023-05-24T05:03:53;10.30;99.90
2997;DHT22;1508;48.744;9.110;2023-05-24T05:06:38;10.60;99.90
2997;DHT22;1508;48.744;9.110;2023-05-24T05:09:24;10.80;99.90
2997;DHT22;1508;48.744;9.110;2023-05-24T05:12:10;10.90;99.90
2997;DHT22;1508;48.744;9.110;2023-05-24T05:14:55;11.10;99.90
2997;DHT22;1508;48.744;9.110;2023-05-24T05:17:41;11.30;99.90
2997;DHT22;1508;48.744;9.110;2023-05-24T05:20:27;11.30;99.90
2997;DHT22;1508;48.744;9.110;2023-05-24T05:23:13;11.30;99.90
2997;DHT22;1508;48.744;9.110;2023-05-24T05:25:58;11.40;99.90
2997;DHT22;1508;48.744;9.110;2023-05-24T05:28:44;11.60;99.90
2997;DHT22;1508;48.744;9.110;2023-05-24T05:31:30;11.60;99.90
2997;DHT22;1508;48.744;9.110;2023-05-24T05:34:16;11.70;99.90
2997;DHT22;1508;48.744;9.110;2023-05-24T05:37:01;11.70;99.90
2997;DHT22;1508;48.744;9.110;2023-05-24T05:39:47;11.70;99.90
2997;DHT22;1508;48.744;9.110;2023-05-24T05:42:33;11.80;99.90
2997;DHT22;1508;48.744;9.110;2023-05-24T05:45:18;11.70;99.90
2997;DHT22;1508;48.744;9.110;2023-05-24T05:48:04;11.60;99.90
2997;DHT22;1508;48.744;9.110;2023-05-24T05:50:50;11.30;99.90
2997;DHT22;1508;48.744;9.110;2023-05-24T05:53:36;11.00;99.90
2997;DHT22;1508;48.744;9.110;2023-05-24T05:56:22;10.90;99.90
2997;DHT22;1508;48.744;9.110;2023-05-24T05:59:15;10.90;99.90
2997;DHT22;1508;48.744;9.110;2023-05-24T06:02:02;11.00;99.90
2997;DHT22;1508;48.744;9.110;2023-05-24T06:04:48;10.90;99.90
2997;DHT22;1508;48.744;9.110;2023-05-24T06:07:34;10.90;99.90
2997;DHT22;1508;48.744;9.110;2023-05-24T06:10:19;10.90;99.90
2997;DHT22;1508;48.744;9.110;2023-05-24T06:13:05;11.00;99.90
2997;DHT22;1508;48.744;9.110;2023-05-24T06:15:51;11.10;99.90
2997;DHT22;1508;48.744;9.110;2023-05-24T06:18:36;11.10;99.90
2997;DHT22;1508;48.744;9.110;2023-05-24T06:21:22;11.30;99.90
2997;DHT22;1508;48.744;9.110;2023-05-24T06:24:08;11.30;99.90
2997;DHT22;1508;48.744;9.110;2023-05-24T06:26:54;11.20;99.90
2997;DHT22;1508;48.744;9.110;2023-05-24T06:29:39;11.10;99.90
2997;DHT22;1508;48.744;9.110;2023-05-24T06:32:25;11.30;99.90
2997;DHT22;1508;48.744;9.110;2023-05-24T06:35:11;11.50;99.90
2997;DHT22;1508;48.744;9.110;2023-05-24T06:37:57;11.80;99.90
2997;DHT22;1508;48.744;9.110;2023-05-24T06:40:42;11.90;99.90
2997;DHT22;1508;48.744;9.110;2023-05-24T06:43:28;12.00;99.90
2997;DHT22;1508;48.744;9.110;2023-05-24T06:46:14;12.10;99.90
2997;DHT22;1508;48.744;9.110;2023-05-24T06:48:59;12.00;99.90
2997;DHT22;1508;48.744;9.110;2023-05-24T06:51:45;12.00;99.90
2997;DHT22;1508;48.744;9.110;2023-05-24T06:54:31;11.90;99.90
2997;DHT22;1508;48.744;9.110;2023-05-24T06:57:17;11.70;99.90
2997;DHT22;1508;48.744;9.110;2023-05-24T07:00:02;11.60;99.90
2997;DHT22;1508;48.744;9.110;2023-05-24T07:02:48;11.60;99.90
2997;DHT22;1508;48.744;9.110;2023-05-24T07:05:34;11.60;99.90
2997;DHT22;1508;48.744;9.110;2023-05-24T07:08:20;11.60;99.90
2997;DHT22;1508;48.744;9.110;2023-05-24T07:11:06;11.60;99.90
2997;DHT22;1508;48.744;9.110;2023-05-24T07:13:51;11.80;99.90
2997;DHT22;1508;48.744;9.110;2023-05-24T07:16:37;11.80;99.90
2997;DHT22;1508;48.744;9.110;2023-05-24T07:19:23;11.60;99.90
2997;DHT22;1508;48.744;9.110;2023-05-24T07:22:08;11.40;99.90
2997;DHT22;1508;48.744;9.110;2023-05-24T07:24:54;11.40;99.90
2997;DHT22;1508;48.744;9.110;2023-05-24T07:27:40;11.50;99.90
2997;DHT22;1508;48.744;9.110;2023-05-24T07:30:26;11.40;99.90
2997;DHT22;1508;48.744;9.110;2023-05-24T07:33:11;11.30;99.90
2997;DHT22;1508;48.744;9.110;2023-05-24T07:35:57;11.30;99.90
2997;DHT22;1508;48.744;9.110;2023-05-24T07:38:43;11.10;99.90
2997;DHT22;1508;48.744;9.110;2023-05-24T07:41:28;11.20;99.90
2997;DHT22;1508;48.744;9.110;2023-05-24T07:44:14;11.20;99.90
2997;DHT22;1508;48.744;9.110;2023-05-24T07:47:00;11.30;99.90
2997;DHT22;1508;48.744;9.110;2023-05-24T07:49:46;11.50;99.90
2997;DHT22;1508;48.744;9.110;2023-05-24T07:52:31;11.40;99.90
2997;DHT22;1508;48.744;9.110;2023-05-24T07:55:17;11.50;99.90
2997;DHT22;1508;48.744;9.110;2023-05-24T07:58:03;11.60;99.90
2997;DHT22;1508;48.744;9.110;2023-05-24T08:00:49;11.70;99.90
2997;DHT22;1508;48.744;9.110;2023-05-24T08:03:34;11.70;99.90
2997;DHT22;1508;48.744;9.110;2023-05-24T08:06:20;11.70;99.90
2997;DHT22;1508;48.744;9.110;2023-05-24T08:09:06;12.00;99.90
2997;DHT22;1508;48.744;9.110;2023-05-24T08:11:52;11.90;99.90
2997;DHT22;1508;48.744;9.110;2023-05-24T08:14:38;11.90;99.90
2997;DHT22;1508;48.744;9.110;2023-05-24T08:17:23;11.90;99.90
2997;DHT22;1508;48.744;9.110;2023-05-24T08:20:10;12.00;99.90
2997;DHT22;1508;48.744;9.110;2023-05-24T08:22:55;11.80;99.90
2997;DHT22;1508;48.744;9.110;2023-05-24T08:25:41;11.70;99.90
2997;DHT22;1508;48.744;9.110;2023-05-24T08:28:27;11.60;99.90
2997;DHT22;1508;48.744;9.110;2023-05-24T08:31:13;11.60;99.90
2997;DHT22;1508;48.744;9.110;2023-05-24T08:33:59;11.60;99.90
2997;DHT22;1508;48.744;9.110;2023-05-24T08:36:45;11.70;99.90
2997;DHT22;1508;48.744;9.110;2023-05-24T08:39:31;11.60;99.90
2997;DHT22;1508;48.744;9.110;2023-05-24T08:42:17;11.90;99.90
2997;DHT22;1508;48.744;9.110;2023-05-24T08:45:05;11.90;99.90
2997;DHT22;1508;48.744;9.110;2023-05-24T08:47:52;12.10;99.90
2997;DHT22;1508;48.744;9.110;2023-05-24T08:50:39;12.20;99.90
2997;DHT22;1508;48.744;9.110;2023-05-24T08:53:26;12.50;99.90
2997;DHT22;1508;48.744;9.110;2023-05-24T08:56:12;12.90;99.90
2997;DHT22;1508;48.744;9.110;2023-05-24T08:58:58;12.80;99.90
2997;DHT22;1508;48.744;9.110;2023-05-24T09:01:44;12.60;99.90
2997;DHT22;1508;48.744;9.110;2023-05-24T09:04:32;12.40;99.90
2997;DHT22;1508;48.744;9.110;2023-05-24T09:07:20;12.30;99.90
2997;DHT22;1508;48.744;9.110;2023-05-24T09:10:06;12.40;99.90
2997;DHT22;1508;48.744;9.110;2023-05-24T09:12:54;12.30;99.90
2997;DHT22;1508;48.744;9.110;2023-05-24T09:15:40;12.50;99.90
2997;DHT22;1508;48.744;9.110;2023-05-24T09:18:26;12.70;99.90
2997;DHT22;1508;48.744;9.110;2023-05-24T09:21:12;12.60;99.90
2997;DHT22;1508;48.744;9.110;2023-05-24T09:23:57;13.10;99.90
2997;DHT22;1508;48.744;9.110;2023-05-24T09:26:43;12.90;99.90
2997;DHT22;1508;48.744;9.110;2023-05-24T09:29:29;12.50;99.90
2997;DHT22;1508;48.744;9.110;2023-05-24T09:32:15;12.40;99.90
2997;DHT22;1508;48.744;9.110;2023-05-24T09:35:01;12.20;99.90
2997;DHT22;1508;48.744;9.110;2023-05-24T09:37:46;12.20;99.90
2997;DHT22;1508;48.744;9.110;2023-05-24T09:40:33;12.20;99.90
2997;DHT22;1508;48.744;9.110;2023-05-24T09:43:18;12.20;99.90
2997;DHT22;1508;48.744;9.110;2023-05-24T09:46:04;12.10;99.90
2997;DHT22;1508;48.744;9.110;2023-05-24T09:51:41;12.20;99.90
2997;DHT22;1508;48.744;9.110;2023-05-24T09:54:27;12.40;99.90
2997;DHT22;1508;48.744;9.110;2023-05-24T09:57:16;12.20;99.90
2997;DHT22;1508;48.744;9.110;2023-05-24T10:00:05;12.10;99.90
2997;DHT22;1508;48.744;9.110;2023-05-24T10:03:02;11.80;99.90
2997;DHT22;1508;48.744;9.110;2023-05-24T10:05:48;12.00;99.90
2997;DHT22;1508;48.744;9.110;2023-05-24T10:08:34;12.00;99.90
2997;DHT22;1508;48.744;9.110;2023-05-24T10:11:19;12.20;99.90
2997;DHT22;1508;48.744;9.110;2023-05-24T10:14:07;12.10;99.90
2997;DHT22;1508;48.744;9.110;2023-05-24T10:16:53;11.70;99.90
2997;DHT22;1508;48.744;9.110;2023-05-24T10:19:39;11.80;99.90
2997;DHT22;1508;48.744;9.110;2023-05-24T10:22:25;11.60;99.90
2997;DHT22;1508;48.744;9.110;2023-05-24T10:25:14;11.50;99.90
2997;DHT22;1508;48.744;9.110;2023-05-24T10:28:06;11.50;99.90
2997;DHT22;1508;48.744;9.110;2023-05-24T10:33:45;11.50;99.90
2997;DHT22;1508;48.744;9.110;2023-05-24T10:36:31;11.50;99.90
2997;DHT22;1508;48.744;9.110;2023-05-24T10:39:18;11.60;99.90
2997;DHT22;1508;48.744;9.110;2023-05-24T10:42:05;11.60;99.90
2997;DHT22;1508;48.744;9.110;2023-05-24T10:44:51;11.60;99.90
2997;DHT22;1508;48.744;9.110;2023-05-24T10:47:37;11.70;99.90
2997;DHT22;1508;48.744;9.110;2023-05-24T10:50:22;11.70;99.90
2997;DHT22;1508;48.744;9.110;2023-05-24T10:53:12;11.50;99.90
2997;DHT22;1508;48.744;9.110;2023-05-24T10:56:01;11.60;99.90
2997;DHT22;1508;48.744;9.110;2023-05-24T11:01:39;12.00;99.90
2997;DHT22;1508;48.744;9.110;2023-05-24T11:04:25;12.60;99.90
2997;DHT22;1508;48.744;9.110;2023-05-24T11:07:12;12.40;99.90
2997;DHT22;1508;48.744;9.110;2023-05-24T11:10:02;12.20;99.90
2997;DHT22;1508;48.744;9.110;2023-05-24T11:12:54;12.50;99.90
2997;DHT22;1508;48.744;9.110;2023-05-24T11:15:48;12.40;99.90
2997;DHT22;1508;48.744;9.110;2023-05-24T11:18:34;12.50;99.90
2997;DHT22;1508;48.744;9.110;2023-05-24T11:21:20;12.80;99.90
2997;DHT22;1508;48.744;9.110;2023-05-24T11:24:06;13.00;99.90
2997;DHT22;1508;48.744;9.110;2023-05-24T11:26:53;13.30;99.90
2997;DHT22;1508;48.744;9.110;2023-05-24T11:29:42;13.30;99.90
2997;DHT22;1508;48.744;9.110;2023-05-24T11:32:28;13.10;99.90
2997;DHT22;1508;48.744;9.110;2023-05-24T11:35:14;12.90;99.90
2997;DHT22;1508;48.744;9.110;2023-05-24T11:38:00;12.90;99.90
2997;DHT22;1508;48.744;9.110;2023-05-24T11:40:46;13.00;99.90
2997;DHT22;1508;48.744;9.110;2023-05-24T11:43:32;13.00;99.90
2997;DHT22;1508;48.744;9.110;2023-05-24T11:46:18;13.10;99.90
2997;DHT22;1508;48.744;9.110;2023-05-24T11:49:04;13.10;99.90
2997;DHT22;1508;48.744;9.110;2023-05-24T11:51:51;13.10;99.90
2997;DHT22;1508;48.744;9.110;2023-05-24T11:54:37;13.20;99.90
2997;DHT22;1508;48.744;9.110;2023-05-24T11:57:28;13.10;99.90
2997;DHT22;1508;48.744;9.110;2023-05-24T12:00:22;13.40;99.90
2997;DHT22;1508;48.744;9.110;2023-05-24T12:03:08;13.50;99.90
2997;DHT22;1508;48.744;9.110;2023-05-24T12:05:55;13.50;99.90
2997;DHT22;1508;48.744;9.110;2023-05-24T12:08:41;13.50;99.90
2997;DHT22;1508;48.744;9.110;2023-05-24T12:11:27;13.50;99.90
2997;DHT22;1508;48.744;9.110;2023-05-24T12:14:13;13.50;99.90
2997;DHT22;1508;48.744;9.110;2023-05-24T12:16:59;13.70;99.90
2997;DHT22;1508;48.744;9.110;2023-05-24T12:19:44;13.90;99.90
2997;DHT22;1508;48.744;9.110;2023-05-24T12:22:33;13.90;99.90
2997;DHT22;1508;48.744;9.110;2023-05-24T12:25:19;14.00;99.90
2997;DHT22;1508;48.744;9.110;2023-05-24T12:28:05;14.20;99.90
2997;DHT22;1508;48.744;9.110;2023-05-24T12:30:50;14.50;99.90
2997;DHT22;1508;48.744;9.110;2023-05-24T12:33:39;14.60;99.90
2997;DHT22;1508;48.744;9.110;2023-05-24T12:36:26;14.70;99.90
2997;DHT22;1508;48.744;9.110;2023-05-24T12:39:22;14.60;99.90
2997;DHT22;1508;48.744;9.110;2023-05-24T12:42:08;14.80;99.90
2997;DHT22;1508;48.744;9.110;2023-05-24T12:44:55;14.70;99.90
2997;DHT22;1508;48.744;9.110;2023-05-24T12:47:40;14.80;99.90
2997;DHT22;1508;48.744;9.110;2023-05-24T12:50:27;14.40;99.90
2997;DHT22;1508;48.744;9.110;2023-05-24T12:53:12;14.40;99.90
2997;DHT22;1508;48.744;9.110;2023-05-24T12:55:58;14.50;99.90
2997;DHT22;1508;48.744;9.110;2023-05-24T12:58:44;14.40;99.90
2997;DHT22;1508;48.744;9.110;2023-05-24T13:01:30;14.50;99.90
2997;DHT22;1508;48.744;9.110;2023-05-24T13:04:16;15.10;99.90
2997;DHT22;1508;48.744;9.110;2023-05-24T13:07:02;15.20;99.90
2997;DHT22;1508;48.744;9.110;2023-05-24T13:09:48;15.60;99.90
2997;DHT22;1508;48.744;9.110;2023-05-24T13:12:34;15.70;99.90
2997;DHT22;1508;48.744;9.110;2023-05-24T13:15:19;16.10;99.90
2997;DHT22;1508;48.744;9.110;2023-05-24T13:18:05;15.40;99.90
2997;DHT22;1508;48.744;9.110;2023-05-24T13:20:51;14.90;99.90
2997;DHT22;1508;48.744;9.110;2023-05-24T13:23:37;15.30;99.90
2997;DHT22;1508;48.744;9.110;2023-05-24T13:26:23;16.00;99.90
2997;DHT22;1508;48.744;9.110;2023-05-24T13:29:09;16.70;99.90
2997;DHT22;1508;48.744;9.110;2023-05-24T13:31:54;17.00;99.90
2997;DHT22;1508;48.744;9.110;2023-05-24T13:34:40;16.80;99.90
2997;DHT22;1508;48.744;9.110;2023-05-24T13:37:26;16.00;99.90
2997;DHT22;1508;48.744;9.110;2023-05-24T13:40:12;15.70;99.90
2997;DHT22;1508;48.744;9.110;2023-05-24T13:42:58;15.80;99.90
2997;DHT22;1508;48.744;9.110;2023-05-24T13:45:43;16.00;99.90
2997;DHT22;1508;48.744;9.110;2023-05-24T13:48:29;15.70;99.90
2997;DHT22;1508;48.744;9.110;2023-05-24T13:51:15;15.20;99.90
2997;DHT22;1508;48.744;9.110;2023-05-24T13:54:01;15.00;99.90
2997;DHT22;1508;48.744;9.110;2023-05-24T13:56:47;15.20;99.90
2997;DHT22;1508;48.744;9.110;2023-05-24T13:59:33;15.40;99.90
2997;DHT22;1508;48.744;9.110;2023-05-24T14:02:18;15.80;99.90
2997;DHT22;1508;48.744;9.110;2023-05-24T14:05:04;16.10;99.90
2997;DHT22;1508;48.744;9.110;2023-05-24T14:07:50;16.10;99.90
2997;DHT22;1508;48.744;9.110;2023-05-24T14:10:36;16.40;99.90
2997;DHT22;1508;48.744;9.110;2023-05-24T14:13:22;16.70;99.90
2997;DHT22;1508;48.744;9.110;2023-05-24T14:16:07;16.30;99.90
2997;DHT22;1508;48.744;9.110;2023-05-24T14:18:53;16.30;99.90
2997;DHT22;1508;48.744;9.110;2023-05-24T14:21:39;16.30;99.90
2997;DHT22;1508;48.744;9.110;2023-05-24T14:24:25;16.10;99.90
2997;DHT22;1508;48.744;9.110;2023-05-24T14:27:11;16.10;99.90
2997;DHT22;1508;48.744;9.110;2023-05-24T14:29:56;16.20;99.90
2997;DHT22;1508;48.744;9.110;2023-05-24T14:32:42;16.30;99.90
2997;DHT22;1508;48.744;9.110;2023-05-24T14:35:28;16.30;99.90
2997;DHT22;1508;48.744;9.110;2023-05-24T14:38:14;16.50;99.90
2997;DHT22;1508;48.744;9.110;2023-05-24T14:41:01;17.10;99.90
2997;DHT22;1508;48.744;9.110;2023-05-24T14:43:46;17.70;99.90
2997;DHT22;1508;48.744;9.110;2023-05-24T14:46:32;18.00;99.90
2997;DHT22;1508;48.744;9.110;2023-05-24T14:49:18;18.10;99.90
2997;DHT22;1508;48.744;9.110;2023-05-24T14:52:04;17.20;99.90
2997;DHT22;1508;48.744;9.110;2023-05-24T14:54:50;16.40;99.90
2997;DHT22;1508;48.744;9.110;2023-05-24T14:57:35;15.90;99.90
2997;DHT22;1508;48.744;9.110;2023-05-24T15:00:21;15.80;99.90
2997;DHT22;1508;48.744;9.110;2023-05-24T15:03:07;15.60;99.90
2997;DHT22;1508;48.744;9.110;2023-05-24T15:05:53;15.80;99.90
2997;DHT22;1508;48.744;9.110;2023-05-24T15:08:38;16.00;99.90
2997;DHT22;1508;48.744;9.110;2023-05-24T15:11:24;16.40;99.90
2997;DHT22;1508;48.744;9.110;2023-05-24T15:14:10;16.80;99.90
2997;DHT22;1508;48.744;9.110;2023-05-24T15:16:56;16.40;99.90
2997;DHT22;1508;48.744;9.110;2023-05-24T15:19:41;16.10;99.90
2997;DHT22;1508;48.744;9.110;2023-05-24T15:22:27;15.90;99.90
2997;DHT22;1508;48.744;9.110;2023-05-24T15:25:13;16.00;99.90
2997;DHT22;1508;48.744;9.110;2023-05-24T15:27:59;16.00;99.90
2997;DHT22;1508;48.744;9.110;2023-05-24T15:30:44;16.20;99.90
2997;DHT22;1508;48.744;9.110;2023-05-24T15:33:30;16.90;99.90
2997;DHT22;1508;48.744;9.110;2023-05-24T15:36:16;17.10;99.90
2997;DHT22;1508;48.744;9.110;2023-05-24T15:39:02;17.20;99.90
2997;DHT22;1508;48.744;9.110;2023-05-24T15:41:47;17.30;99.90
2997;DHT22;1508;48.744;9.110;2023-05-24T15:44:33;17.30;99.90
2997;DHT22;1508;48.744;9.110;2023-05-24T15:47:19;16.90;99.90
2997;DHT22;1508;48.744;9.110;2023-05-24T15:50:05;16.30;99.90
2997;DHT22;1508;48.744;9.110;2023-05-24T15:52:51;16.20;99.90
2997;DHT22;1508;48.744;9.110;2023-05-24T15:55:37;15.80;99.90
2997;DHT22;1508;48.744;9.110;2023-05-24T15:58:23;15.60;99.90
2997;DHT22;1508;48.744;9.110;2023-05-24T16:01:08;15.50;99.90
2997;DHT22;1508;48.744;9.110;2023-05-24T16:03:54;15.60;99.90
2997;DHT22;1508;48.744;9.110;2023-05-24T16:06:40;15.70;99.90
2997;DHT22;1508;48.744;9.110;2023-05-24T16:09:25;15.60;99.90
2997;DHT22;1508;48.744;9.110;2023-05-24T16:12:11;15.80;99.90
2997;DHT22;1508;48.744;9.110;2023-05-24T16:14:58;16.00;99.90
2997;DHT22;1508;48.744;9.110;2023-05-24T16:17:44;16.30;99.90
2997;DHT22;1508;48.744;9.110;2023-05-24T16:20:30;16.40;99.90
2997;DHT22;1508;48.744;9.110;2023-05-24T16:23:16;16.40;99.90
2997;DHT22;1508;48.744;9.110;2023-05-24T16:26:02;16.60;99.90
2997;DHT22;1508;48.744;9.110;2023-05-24T16:28:48;16.60;99.90
2997;DHT22;1508;48.744;9.110;2023-05-24T16:31:33;16.60;99.90
2997;DHT22;1508;48.744;9.110;2023-05-24T16:34:19;16.60;99.90
2997;DHT22;1508;48.744;9.110;2023-05-24T16:37:05;16.70;99.90
2997;DHT22;1508;48.744;9.110;2023-05-24T16:39:51;16.60;99.90
2997;DHT22;1508;48.744;9.110;2023-05-24T16:42:36;16.50;99.90
2997;DHT22;1508;48.744;9.110;2023-05-24T16:45:22;16.70;99.90
2997;DHT22;1508;48.744;9.110;2023-05-24T16:48:08;16.70;99.90
2997;DHT22;1508;48.744;9.110;2023-05-24T16:50:53;16.50;99.90
2997;DHT22;1508;48.744;9.110;2023-05-24T16:53:39;15.90;99.90
2997;DHT22;1508;48.744;9.110;2023-05-24T16:56:25;15.50;99.90
2997;DHT22;1508;48.744;9.110;2023-05-24T16:59:11;15.40;99.90
2997;DHT22;1508;48.744;9.110;2023-05-24T17:01:56;15.30;99.90
2997;DHT22;1508;48.744;9.110;2023-05-24T17:04:42;15.20;99.90
2997;DHT22;1508;48.744;9.110;2023-05-24T17:07:28;15.10;99.90
2997;DHT22;1508;48.744;9.110;2023-05-24T17:10:14;15.10;99.90
2997;DHT22;1508;48.744;9.110;2023-05-24T17:12:59;15.00;99.90
2997;DHT22;1508;48.744;9.110;2023-05-24T17:15:45;15.10;99.90
2997;DHT22;1508;48.744;9.110;2023-05-24T17:18:31;15.00;99.90
2997;DHT22;1508;48.744;9.110;2023-05-24T17:21:17;14.90;99.90
2997;DHT22;1508;48.744;9.110;2023-05-24T17:24:02;14.80;99.90
2997;DHT22;1508;48.744;9.110;2023-05-24T17:26:48;14.70;99.90
2997;DHT22;1508;48.744;9.110;2023-05-24T17:29:34;14.60;99.90
2997;DHT22;1508;48.744;9.110;2023-05-24T17:32:20;14.50;99.90
2997;DHT22;1508;48.744;9.110;2023-05-24T17:35:05;14.50;99.90
2997;DHT22;1508;48.744;9.110;2023-05-24T17:37:51;14.20;99.90
2997;DHT22;1508;48.744;9.110;2023-05-24T17:40:37;14.00;99.90
2997;DHT22;1508;48.744;9.110;2023-05-24T17:43:23;14.00;99.90
2997;DHT22;1508;48.744;9.110;2023-05-24T17:46:09;14.00;99.90
2997;DHT22;1508;48.744;9.110;2023-05-24T17:48:54;13.90;99.90
2997;DHT22;1508;48.744;9.110;2023-05-24T17:51:40;13.90;99.90
2997;DHT22;1508;48.744;9.110;2023-05-24T17:54:26;13.80;99.90
2997;DHT22;1508;48.744;9.110;2023-05-24T17:57:12;13.90;99.90
2997;DHT22;1508;48.744;9.110;2023-05-24T17:59:57;13.90;99.90
2997;DHT22;1508;48.744;9.110;2023-05-24T18:02:43;14.00;99.90
2997;DHT22;1508;48.744;9.110;2023-05-24T18:05:29;13.90;99.90
2997;DHT22;1508;48.744;9.110;2023-05-24T18:08:14;13.80;99.90
2997;DHT22;1508;48.744;9.110;2023-05-24T18:11:00;13.70;99.90
2997;DHT22;1508;48.744;9.110;2023-05-24T18:13:46;13.60;99.90
2997;DHT22;1508;48.744;9.110;2023-05-24T18:16:32;13.60;99.90
2997;DHT22;1508;48.744;9.110;2023-05-24T18:19:17;13.60;99.90